Terminal Aerodrome Forecast
Issued by NWS Shreveport, LA

Home | Current Version | Previous Version | Text Only | Print | Product List | Glossary On
Versions: 1 2 3 4 5 6 7 8 9 10 11 12 13 14 15 16 17 18 19 20 21 22 23 24 25 26 27 28 29 30 31 32 33 34 35 36 37 38 39 40 41 42 43 44 45 46 47 48 49 50
000
FTUS44 KSHV 161141
TAFMLU
TAF
KMLU 161141Z 1612/1712 14005KT P6SM VCSH SCT015 BKN020 OVC070
     FM161500 18009KT P6SM VCSH OVC015
     FM161800 20011G17KT 5SM -SHRA BR VCTS OVC015CB
     FM162000 24013G20KT 4SM TSRA BR OVC010CB
     FM170000 32014G22KT P6SM OVC008
     FM170300 33012G18KT P6SM OVC015=

USA.gov is the U.S. government's official web portal to all federal, state and local government web resources and services.